createdAt,value
2017-06-27T00:00:01.867Z,46.40
2017-06-27T00:02:29.958Z,46.60
2017-06-27T00:04:58.110Z,46.40
2017-06-27T00:07:26.337Z,46.60
2017-06-27T00:09:55.154Z,47.50
2017-06-27T00:12:23.245Z,46.90
2017-06-27T00:14:51.423Z,47.10
2017-06-27T00:17:19.478Z,47.30
2017-06-27T00:19:47.602Z,47.10
2017-06-27T00:22:16.429Z,47.10
2017-06-27T00:24:44.537Z,47.00
2017-06-27T00:27:12.586Z,47.00
2017-06-27T00:29:41.409Z,47.20
2017-06-27T00:32:09.565Z,47.30
2017-06-27T00:34:38.046Z,47.20
2017-06-27T00:37:06.109Z,46.90
2017-06-27T00:39:34.166Z,46.80
2017-06-27T00:42:02.669Z,46.90
2017-06-27T00:44:30.730Z,47.10
2017-06-27T00:46:58.831Z,47.00
2017-06-27T00:49:26.989Z,47.60
2017-06-27T00:51:55.171Z,47.40
2017-06-27T00:54:23.225Z,47.20
2017-06-27T00:56:51.413Z,47.60
2017-06-27T00:59:19.509Z,47.70
2017-06-27T01:01:47.558Z,47.90
2017-06-27T01:04:15.724Z,47.80
2017-06-27T01:06:43.794Z,47.80
2017-06-27T01:09:11.881Z,47.60
2017-06-27T01:11:39.933Z,47.80
2017-06-27T01:16:37.835Z,47.50
2017-06-27T01:19:05.890Z,48.10
2017-06-27T01:21:33.942Z,47.90
2017-06-27T01:24:03.153Z,48.00
2017-06-27T01:26:31.210Z,47.90
2017-06-27T01:28:59.281Z,48.10
2017-06-27T01:31:27.337Z,48.20
2017-06-27T01:36:24.769Z,48.00
2017-06-27T01:38:52.933Z,48.10
2017-06-27T01:41:20.989Z,47.90
2017-06-27T01:43:49.090Z,48.00
2017-06-27T01:46:17.161Z,48.00
2017-06-27T01:48:45.217Z,48.00
2017-06-27T01:51:13.281Z,48.40
2017-06-27T01:53:41.465Z,48.60
2017-06-27T01:56:09.524Z,48.10
2017-06-27T01:58:37.606Z,48.40
2017-06-27T02:01:05.784Z,48.40
2017-06-27T02:03:33.846Z,49.70
2017-06-27T02:06:02.314Z,50.30
2017-06-27T02:08:30.810Z,50.50
2017-06-27T02:10:59.267Z,50.80
2017-06-27T02:13:27.366Z,50.90
2017-06-27T02:15:55.460Z,51.50
2017-06-27T02:18:23.514Z,51.90
2017-06-27T02:20:53.096Z,52.40
2017-06-27T02:23:21.199Z,52.30
2017-06-27T02:25:49.274Z,52.80
2017-06-27T02:28:17.458Z,52.80
2017-06-27T02:30:45.539Z,53.20
2017-06-27T02:33:14.362Z,53.00
2017-06-27T02:35:43.299Z,53.40
2017-06-27T02:38:11.359Z,53.20
2017-06-27T02:40:39.422Z,53.20
2017-06-27T02:45:37.350Z,53.60
2017-06-27T02:48:05.908Z,53.10
2017-06-27T02:50:34.495Z,53.30
2017-06-27T02:53:02.566Z,53.80
2017-06-27T02:55:30.639Z,54.10
2017-06-27T02:57:58.815Z,54.40
2017-06-27T03:00:27.258Z,54.30
2017-06-27T03:02:55.362Z,54.30
2017-06-27T03:05:24.590Z,54.40
2017-06-27T03:07:52.667Z,54.60
2017-06-27T03:10:32.764Z,54.70
2017-06-27T03:13:01.243Z,54.60
2017-06-27T03:15:29.314Z,54.60
2017-06-27T03:17:58.566Z,54.60
2017-06-27T03:20:27.754Z,54.80
2017-06-27T03:22:55.805Z,54.80
2017-06-27T03:25:25.437Z,54.70
2017-06-27T03:27:53.511Z,54.70
2017-06-27T03:30:22.383Z,54.40
2017-06-27T03:32:50.566Z,54.80
2017-06-27T03:35:19.377Z,55.00
2017-06-27T03:37:47.465Z,55.10
2017-06-27T03:40:15.590Z,55.10
2017-06-27T03:42:43.723Z,54.80
2017-06-27T03:45:11.788Z,54.80
2017-06-27T03:47:40.614Z,55.40
2017-06-27T03:50:09.486Z,55.20
2017-06-27T03:52:37.622Z,54.60
2017-06-27T03:55:05.738Z,54.70
2017-06-27T03:57:33.850Z,54.80
2017-06-27T04:02:32.030Z,55.40
2017-06-27T04:05:00.091Z,54.60
2017-06-27T04:07:28.158Z,54.60
2017-06-27T04:09:56.270Z,54.80
2017-06-27T04:12:24.435Z,54.70
2017-06-27T04:14:52.968Z,54.60
2017-06-27T04:17:21.948Z,55.10
2017-06-27T04:19:50.068Z,54.30
2017-06-27T04:22:18.213Z,54.40
2017-06-27T04:24:47.410Z,54.40
2017-06-27T04:27:15.506Z,54.50
2017-06-27T04:29:43.645Z,54.40
2017-06-27T04:32:12.537Z,54.70
2017-06-27T04:37:09.954Z,54.40
2017-06-27T04:39:38.532Z,54.20
2017-06-27T04:42:06.600Z,54.00
2017-06-27T04:44:35.106Z,54.50
2017-06-27T04:47:03.206Z,54.70
2017-06-27T04:49:32.060Z,54.80
2017-06-27T04:52:00.531Z,54.40
2017-06-27T04:54:29.418Z,54.60
2017-06-27T04:56:57.917Z,56.80
2017-06-27T04:59:27.666Z,62.10
2017-06-27T05:04:25.200Z,64.00
2017-06-27T05:06:53.367Z,66.10
2017-06-27T05:09:21.544Z,66.50
2017-06-27T05:11:49.693Z,66.20
2017-06-27T05:14:18.604Z,69.00
2017-06-27T05:16:47.434Z,67.00
2017-06-27T05:19:16.292Z,68.80
2017-06-27T05:21:44.445Z,67.80
2017-06-27T05:24:12.506Z,66.60
2017-06-27T05:26:40.990Z,67.30
2017-06-27T05:29:09.474Z,66.10
2017-06-27T05:31:37.547Z,66.10
2017-06-27T05:34:05.661Z,66.60
2017-06-27T05:36:33.789Z,67.50
2017-06-27T05:39:01.858Z,67.10
2017-06-27T05:41:29.927Z,65.60
2017-06-27T05:43:58.039Z,66.20
2017-06-27T05:46:26.218Z,65.50
2017-06-27T05:48:54.309Z,64.30
2017-06-27T05:51:22.374Z,64.20
2017-06-27T05:53:50.468Z,64.60
2017-06-27T05:56:18.542Z,64.50
2017-06-27T05:58:46.605Z,65.40
2017-06-27T06:01:15.469Z,65.20
2017-06-27T06:03:44.339Z,65.60
2017-06-27T06:06:12.407Z,65.00
2017-06-27T06:11:09.834Z,63.00
2017-06-27T06:13:38.666Z,63.50
2017-06-27T06:16:06.755Z,63.30
2017-06-27T06:18:34.846Z,64.20
2017-06-27T06:21:04.142Z,63.70
2017-06-27T06:23:32.206Z,62.70
2017-06-27T06:26:00.274Z,62.90
2017-06-27T06:28:28.358Z,62.00
2017-06-27T06:30:57.235Z,63.40
2017-06-27T06:33:25.307Z,64.00
2017-06-27T06:35:53.381Z,62.40
2017-06-27T06:40:51.193Z,60.80
2017-06-27T06:43:19.338Z,62.50
2017-06-27T06:45:48.171Z,61.80
2017-06-27T06:48:17.001Z,63.10
2017-06-27T06:50:45.090Z,61.50
2017-06-27T06:53:13.181Z,59.30
2017-06-27T06:58:10.618Z,60.00
2017-06-27T07:00:38.709Z,57.40
2017-06-27T07:03:07.217Z,56.20
2017-06-27T07:05:35.765Z,55.90
2017-06-27T07:08:03.898Z,55.30
2017-06-27T07:10:32.826Z,55.40
2017-06-27T07:13:00.886Z,55.10
2017-06-27T07:15:29.375Z,57.00
2017-06-27T07:17:57.442Z,56.80
2017-06-27T07:20:25.919Z,55.10
2017-06-27T07:22:54.414Z,55.40
2017-06-27T07:25:22.908Z,54.70
2017-06-27T07:27:50.980Z,54.60
2017-06-27T07:30:19.462Z,54.50
2017-06-27T07:32:47.521Z,55.10
2017-06-27T07:35:15.582Z,55.40
2017-06-27T07:37:43.671Z,55.10
2017-06-27T07:40:11.731Z,54.60
2017-06-27T07:42:39.830Z,54.30
2017-06-27T07:45:07.878Z,55.10
2017-06-27T07:47:35.935Z,55.10
2017-06-27T07:50:04.014Z,57.40
2017-06-27T07:52:32.069Z,57.60
2017-06-27T07:55:00.130Z,58.80
2017-06-27T07:57:28.974Z,58.70
2017-06-27T07:59:57.478Z,58.60
2017-06-27T08:02:25.545Z,58.80
2017-06-27T08:04:53.618Z,60.70
2017-06-27T08:07:21.694Z,59.70
2017-06-27T08:09:49.762Z,59.00
2017-06-27T08:12:17.862Z,59.10
2017-06-27T08:14:46.723Z,58.20
2017-06-27T08:17:14.815Z,57.90
2017-06-27T08:19:43.674Z,59.10
2017-06-27T08:22:11.723Z,59.30
2017-06-27T08:24:39.794Z,58.30
2017-06-27T08:27:07.883Z,57.30
2017-06-27T08:29:36.735Z,57.30
2017-06-27T08:32:04.791Z,56.20
2017-06-27T08:34:33.654Z,57.40
2017-06-27T08:37:01.714Z,56.90
2017-06-27T08:39:29.815Z,56.10
2017-06-27T08:41:57.878Z,56.80
2017-06-27T08:44:25.970Z,55.00
2017-06-27T08:46:54.799Z,55.10
2017-06-27T08:49:22.858Z,54.40
2017-06-27T08:51:50.947Z,54.60
2017-06-27T08:54:19.397Z,55.10
2017-06-27T08:56:47.492Z,54.90
2017-06-27T08:59:15.574Z,55.20
2017-06-27T09:01:43.627Z,55.40
2017-06-27T09:04:11.715Z,54.60
2017-06-27T09:06:39.775Z,53.00
2017-06-27T09:09:07.850Z,53.00
2017-06-27T09:11:36.382Z,52.80
2017-06-27T09:14:04.439Z,51.60
2017-06-27T09:16:32.498Z,49.90
2017-06-27T09:19:00.604Z,50.30
2017-06-27T09:21:28.662Z,50.10
2017-06-27T09:23:56.754Z,49.60
2017-06-27T09:26:25.594Z,49.10
2017-06-27T09:28:54.038Z,48.90
2017-06-27T09:31:22.114Z,49.60
2017-06-27T09:33:50.170Z,50.00
2017-06-27T09:36:19.022Z,48.90
2017-06-27T09:38:47.523Z,49.30
2017-06-27T09:41:15.582Z,49.50
2017-06-27T09:43:44.031Z,48.20
2017-06-27T09:46:12.114Z,48.60
2017-06-27T09:48:40.173Z,47.60
2017-06-27T09:51:08.255Z,47.80
2017-06-27T09:53:36.369Z,48.00
2017-06-27T09:56:04.410Z,47.40
2017-06-27T09:58:32.532Z,48.60
2017-06-27T10:01:00.991Z,48.30
2017-06-27T10:03:29.442Z,48.90
2017-06-27T10:05:57.532Z,48.30
2017-06-27T10:08:26.390Z,47.70
2017-06-27T10:10:54.867Z,48.60
2017-06-27T10:13:22.928Z,49.30
2017-06-27T10:15:51.378Z,49.70
2017-06-27T10:18:20.230Z,49.90
2017-06-27T10:20:48.313Z,49.00
2017-06-27T10:23:16.467Z,49.70
2017-06-27T10:25:45.275Z,50.30
2017-06-27T10:28:13.335Z,50.20
2017-06-27T10:30:41.448Z,50.10
2017-06-27T10:33:10.302Z,50.20
2017-06-27T10:35:38.363Z,49.80
2017-06-27T10:38:06.818Z,50.50
2017-06-27T10:40:34.934Z,50.50
2017-06-27T10:43:03.001Z,50.70
2017-06-27T10:45:31.065Z,50.50
2017-06-27T10:47:59.192Z,50.70
2017-06-27T10:50:27.643Z,50.70
2017-06-27T10:52:55.725Z,50.80
2017-06-27T10:55:23.839Z,50.90
2017-06-27T10:57:52.341Z,51.30
2017-06-27T11:00:20.379Z,51.30
2017-06-27T11:02:48.503Z,51.50
2017-06-27T11:05:16.571Z,50.90
2017-06-27T11:07:45.410Z,51.00
2017-06-27T11:10:13.488Z,50.70
2017-06-27T11:12:41.541Z,50.50
2017-06-27T11:15:10.399Z,51.40
2017-06-27T11:17:38.459Z,50.40
2017-06-27T11:20:06.519Z,51.50
2017-06-27T11:22:34.596Z,51.00
2017-06-27T11:25:02.680Z,50.10
2017-06-27T11:27:30.762Z,49.80
2017-06-27T11:29:58.818Z,49.80
2017-06-27T11:32:26.882Z,50.10
2017-06-27T11:34:54.958Z,50.10
2017-06-27T11:37:23.018Z,49.70
2017-06-27T11:39:51.074Z,49.40
2017-06-27T11:42:19.146Z,49.40
2017-06-27T11:44:47.606Z,49.80
2017-06-27T11:47:16.511Z,49.60
2017-06-27T11:49:45.306Z,50.60
2017-06-27T11:52:13.371Z,49.90
2017-06-27T11:54:41.514Z,49.20
2017-06-27T11:57:09.966Z,49.90
2017-06-27T11:59:38.053Z,49.90
2017-06-27T12:02:10.251Z,49.30
2017-06-27T12:04:41.200Z,49.10
2017-06-27T12:07:24.406Z,49.00
2017-06-27T12:09:53.230Z,49.40
2017-06-27T12:12:21.325Z,48.80
2017-06-27T12:14:49.382Z,47.10
2017-06-27T12:17:17.438Z,47.40
2017-06-27T12:19:45.526Z,47.50
2017-06-27T12:22:13.582Z,46.80
2017-06-27T12:24:41.645Z,46.70
2017-06-27T12:27:10.495Z,45.30
2017-06-27T12:29:38.559Z,44.70
2017-06-27T12:32:06.642Z,43.40
2017-06-27T12:34:34.726Z,43.20
2017-06-27T12:37:02.822Z,43.00
2017-06-27T12:39:31.258Z,43.50
2017-06-27T12:41:59.350Z,43.80
2017-06-27T12:44:27.422Z,44.00
2017-06-27T12:46:55.559Z,43.70
2017-06-27T12:49:23.635Z,42.80
2017-06-27T12:51:51.707Z,42.40
2017-06-27T12:54:19.783Z,40.00
2017-06-27T12:56:47.927Z,38.00
2017-06-27T12:59:15.966Z,35.40
2017-06-27T13:01:44.431Z,35.80
2017-06-27T13:04:12.515Z,35.30
2017-06-27T13:06:40.972Z,33.20
2017-06-27T13:09:09.030Z,33.10
2017-06-27T13:11:37.142Z,31.50
2017-06-27T13:14:05.962Z,33.30
2017-06-27T13:16:34.020Z,31.00
2017-06-27T13:19:02.872Z,30.90
2017-06-27T13:21:30.927Z,30.30
2017-06-27T13:23:59.375Z,31.70
2017-06-27T13:26:27.446Z,34.30
2017-06-27T13:28:55.530Z,35.30
2017-06-27T13:31:23.610Z,36.10
2017-06-27T13:33:52.063Z,36.00
2017-06-27T13:36:20.119Z,36.00
2017-06-27T13:38:48.959Z,37.60
2017-06-27T13:41:17.059Z,37.50
2017-06-27T13:43:45.134Z,38.40
2017-06-27T13:46:13.275Z,39.50
2017-06-27T13:48:41.354Z,40.30
2017-06-27T13:51:09.431Z,40.80
2017-06-27T13:53:37.482Z,41.30
2017-06-27T13:56:05.958Z,41.10
2017-06-27T13:58:34.014Z,40.40
2017-06-27T14:01:02.478Z,41.20
2017-06-27T14:03:31.327Z,39.80
2017-06-27T14:05:59.414Z,39.00
2017-06-27T14:08:27.470Z,38.70
2017-06-27T14:10:55.531Z,39.20
2017-06-27T14:13:24.386Z,39.20
2017-06-27T14:15:52.470Z,39.30
2017-06-27T14:18:20.612Z,39.00
2017-06-27T14:20:48.666Z,40.50
2017-06-27T14:23:16.737Z,39.80
2017-06-27T14:25:44.881Z,39.90
2017-06-27T14:28:12.991Z,39.50
2017-06-27T14:30:41.054Z,40.00
2017-06-27T14:33:09.506Z,38.30
2017-06-27T14:35:37.599Z,37.50
2017-06-27T14:38:05.657Z,36.60
2017-06-27T14:40:33.710Z,34.90
2017-06-27T14:43:02.562Z,36.90
2017-06-27T14:45:31.395Z,37.20
2017-06-27T14:47:59.459Z,35.80
2017-06-27T14:50:27.979Z,35.70
2017-06-27T14:52:56.450Z,37.30
2017-06-27T14:55:24.525Z,37.00
2017-06-27T14:57:52.645Z,36.70
2017-06-27T15:00:20.755Z,36.90
2017-06-27T15:02:48.819Z,37.30
2017-06-27T15:05:16.898Z,37.30
2017-06-27T15:07:44.954Z,38.60
2017-06-27T15:10:13.012Z,38.50
2017-06-27T15:12:41.107Z,37.80
2017-06-27T15:15:09.571Z,38.30
2017-06-27T15:17:37.651Z,38.90
2017-06-27T15:20:05.786Z,39.10
2017-06-27T15:22:33.843Z,39.50
2017-06-27T15:25:01.907Z,39.20
2017-06-27T15:27:30.023Z,39.80
2017-06-27T15:29:58.082Z,39.90
2017-06-27T15:32:26.904Z,41.30
2017-06-27T15:34:55.006Z,40.00
2017-06-27T15:37:23.062Z,40.00
2017-06-27T15:39:51.128Z,40.40
2017-06-27T15:42:19.603Z,40.50
2017-06-27T15:44:47.655Z,40.90
2017-06-27T15:47:16.109Z,41.30
2017-06-27T15:49:44.194Z,41.10
2017-06-27T15:52:13.020Z,41.80
2017-06-27T15:54:41.466Z,41.80
2017-06-27T15:57:10.322Z,41.80
2017-06-27T15:59:38.377Z,40.80
2017-06-27T16:02:06.437Z,41.70
2017-06-27T16:04:34.528Z,41.80
2017-06-27T16:07:03.347Z,41.40
2017-06-27T16:09:31.406Z,41.60
2017-06-27T16:11:59.478Z,42.20
2017-06-27T16:14:27.538Z,42.80
2017-06-27T16:16:55.632Z,43.20
2017-06-27T16:19:23.686Z,43.30
2017-06-27T16:21:53.250Z,44.10
2017-06-27T16:24:21.348Z,44.00
2017-06-27T16:26:49.402Z,44.20
2017-06-27T16:29:17.462Z,44.10
2017-06-27T16:31:45.992Z,44.70
2017-06-27T16:34:14.455Z,44.70
2017-06-27T16:36:42.507Z,44.60
2017-06-27T16:39:10.592Z,44.60
2017-06-27T16:41:38.642Z,44.60
2017-06-27T16:44:06.719Z,44.70
2017-06-27T16:46:34.794Z,44.50
2017-06-27T16:49:02.850Z,44.80
2017-06-27T16:51:30.906Z,44.90
2017-06-27T16:53:59.384Z,45.00
2017-06-27T16:56:28.210Z,45.80
2017-06-27T16:58:56.283Z,45.30
2017-06-27T17:01:24.490Z,45.30
2017-06-27T17:03:52.568Z,45.20
2017-06-27T17:06:20.714Z,45.50
2017-06-27T17:08:48.810Z,45.90
2017-06-27T17:11:16.968Z,46.20
2017-06-27T17:13:45.063Z,46.00
2017-06-27T17:16:13.207Z,46.70
2017-06-27T17:18:41.262Z,46.00
2017-06-27T17:21:09.759Z,46.60
2017-06-27T17:23:37.846Z,46.00
2017-06-27T17:26:05.902Z,46.50
2017-06-27T17:28:34.086Z,46.30
2017-06-27T17:31:02.894Z,46.80
2017-06-27T17:33:31.718Z,46.50
2017-06-27T17:36:00.539Z,46.80
2017-06-27T17:38:28.726Z,46.70
2017-06-27T17:40:57.552Z,46.70
2017-06-27T17:43:25.618Z,46.70
2017-06-27T17:45:54.099Z,46.60
2017-06-27T17:48:22.580Z,46.90
2017-06-27T17:50:50.638Z,47.10
2017-06-27T17:53:19.504Z,47.80
2017-06-27T17:55:47.567Z,47.70
2017-06-27T17:58:16.010Z,47.60
2017-06-27T18:00:44.960Z,48.50
2017-06-27T18:03:13.022Z,48.30
2017-06-27T18:05:41.112Z,48.30
2017-06-27T18:08:09.575Z,48.40
2017-06-27T18:10:37.626Z,48.20
2017-06-27T18:13:06.133Z,48.40
2017-06-27T18:15:34.226Z,48.40
2017-06-27T18:18:02.384Z,48.00
2017-06-27T18:20:30.474Z,47.90
2017-06-27T18:22:58.651Z,48.10
2017-06-27T18:25:26.751Z,48.20
2017-06-27T18:27:55.612Z,48.20
2017-06-27T18:30:23.777Z,47.50
2017-06-27T18:32:52.822Z,47.40
2017-06-27T18:35:20.951Z,46.20
2017-06-27T18:37:49.046Z,46.30
2017-06-27T18:40:17.111Z,45.60
2017-06-27T18:42:45.171Z,46.10
2017-06-27T18:45:14.766Z,46.70
2017-06-27T18:47:42.847Z,46.00
2017-06-27T18:50:11.283Z,46.00
2017-06-27T18:52:39.422Z,45.90
2017-06-27T18:55:08.262Z,45.90
2017-06-27T18:57:36.343Z,46.10
2017-06-27T19:00:04.822Z,45.90
2017-06-27T19:02:33.281Z,45.80
2017-06-27T19:05:01.355Z,45.90
2017-06-27T19:07:29.427Z,46.30
2017-06-27T19:09:57.879Z,46.40
2017-06-27T19:12:26.755Z,46.90
2017-06-27T19:14:54.842Z,46.60
2017-06-27T19:17:23.661Z,46.90
2017-06-27T19:19:52.491Z,47.10
2017-06-27T19:22:20.578Z,47.10
2017-06-27T19:24:48.641Z,47.30
2017-06-27T19:27:17.100Z,47.60
2017-06-27T19:29:45.222Z,47.50
2017-06-27T19:32:13.675Z,47.90
2017-06-27T19:34:42.503Z,48.30
2017-06-27T19:37:10.974Z,48.50
2017-06-27T19:39:39.798Z,49.50
2017-06-27T19:42:09.408Z,49.40
2017-06-27T19:44:37.477Z,49.50
2017-06-27T19:47:05.539Z,49.80
2017-06-27T19:49:33.623Z,50.10
2017-06-27T19:52:01.682Z,50.30
2017-06-27T19:54:30.936Z,51.30
2017-06-27T19:56:59.442Z,51.10
2017-06-27T19:59:28.271Z,51.80
2017-06-27T20:01:57.513Z,51.90
2017-06-27T20:04:25.624Z,51.60
2017-06-27T20:06:53.675Z,51.90
2017-06-27T20:09:22.522Z,52.50
2017-06-27T20:14:21.427Z,52.20
2017-06-27T20:16:49.486Z,52.30
2017-06-27T20:19:17.555Z,53.30
2017-06-27T20:21:45.730Z,53.40
2017-06-27T20:24:13.817Z,53.70
2017-06-27T20:26:41.864Z,53.70
2017-06-27T20:29:11.511Z,53.90
2017-06-27T20:31:39.687Z,53.90
2017-06-27T20:34:07.750Z,53.70
2017-06-27T20:36:35.842Z,53.70
2017-06-27T20:39:03.929Z,53.70
2017-06-27T20:41:31.966Z,53.70
2017-06-27T20:44:00.050Z,54.00
2017-06-27T20:46:28.137Z,54.20
2017-06-27T20:48:56.213Z,54.50
2017-06-27T20:51:25.038Z,54.90
2017-06-27T20:53:53.140Z,54.80
2017-06-27T20:56:21.210Z,55.60
2017-06-27T20:58:49.366Z,56.00
2017-06-27T21:01:17.566Z,56.30
2017-06-27T21:03:45.784Z,56.90
2017-06-27T21:06:14.610Z,57.60
2017-06-27T21:08:42.694Z,57.50
2017-06-27T21:11:12.947Z,58.00
2017-06-27T21:13:41.050Z,57.60
2017-06-27T21:16:09.134Z,57.60
2017-06-27T21:18:37.194Z,58.10
2017-06-27T21:21:05.295Z,57.70
2017-06-27T21:23:33.471Z,58.20
2017-06-27T21:26:01.539Z,58.30
2017-06-27T21:28:29.648Z,58.00
2017-06-27T21:30:57.786Z,57.70
2017-06-27T21:33:25.856Z,57.70
2017-06-27T21:35:54.055Z,57.70
2017-06-27T21:38:22.117Z,57.50
2017-06-27T21:40:50.274Z,57.40
2017-06-27T21:43:18.355Z,57.60
2017-06-27T21:45:46.555Z,57.00
2017-06-27T21:48:14.698Z,57.10
2017-06-27T21:50:42.767Z,56.90
2017-06-27T21:53:10.866Z,57.50
2017-06-27T21:58:09.479Z,57.10
2017-06-27T22:00:37.623Z,56.70
2017-06-27T22:03:05.747Z,56.60
2017-06-27T22:05:33.812Z,56.50
2017-06-27T22:08:02.655Z,57.00
2017-06-27T22:10:30.732Z,56.70
2017-06-27T22:12:58.791Z,56.60
2017-06-27T22:15:26.846Z,56.50
2017-06-27T22:17:55.021Z,56.60
2017-06-27T22:20:23.215Z,56.90
2017-06-27T22:22:51.278Z,56.80
2017-06-27T22:25:19.358Z,57.10
2017-06-27T22:27:48.199Z,57.20
2017-06-27T22:30:17.155Z,58.30
2017-06-27T22:32:45.230Z,57.10
2017-06-27T22:35:13.395Z,57.20
2017-06-27T22:37:41.487Z,57.20
2017-06-27T22:40:09.638Z,57.10
2017-06-27T22:42:37.720Z,57.20
2017-06-27T22:45:05.823Z,57.30
2017-06-27T22:47:33.918Z,57.20
2017-06-27T22:50:02.095Z,57.40
2017-06-27T22:52:30.150Z,57.30
2017-06-27T22:54:58.245Z,57.30
2017-06-27T22:57:26.347Z,57.70
2017-06-27T22:59:54.418Z,57.90
2017-06-27T23:02:22.470Z,58.10
2017-06-27T23:04:50.661Z,58.20
2017-06-27T23:07:18.812Z,58.60
2017-06-27T23:09:47.634Z,58.50
2017-06-27T23:12:15.710Z,58.60
2017-06-27T23:14:44.164Z,58.60
2017-06-27T23:17:12.219Z,58.60
2017-06-27T23:19:40.299Z,58.60
2017-06-27T23:22:08.376Z,58.90
2017-06-27T23:24:36.447Z,59.30
2017-06-27T23:27:04.522Z,59.10
2017-06-27T23:29:32.595Z,58.80
2017-06-27T23:32:00.659Z,59.10
2017-06-27T23:34:29.511Z,59.10
2017-06-27T23:36:57.568Z,59.20
2017-06-27T23:39:26.396Z,59.50
2017-06-27T23:41:54.470Z,59.10
2017-06-27T23:44:22.526Z,59.10
2017-06-27T23:46:50.590Z,59.30
2017-06-27T23:49:18.674Z,58.70
2017-06-27T23:51:47.862Z,58.40
2017-06-27T23:54:15.918Z,58.40
2017-06-27T23:56:44.005Z,58.70
2017-06-27T23:59:12.079Z,58.70
